createdAt,value
2022-12-09T00:00:47.284Z,23
2022-12-09T00:06:30.855Z,22.9
2022-12-09T00:11:39.753Z,22.9
2022-12-09T00:17:19.290Z,23.1
2022-12-09T00:22:27.006Z,23.8
2022-12-09T00:27:50.932Z,24.1
2022-12-09T00:33:32.307Z,23.8
2022-12-09T00:39:12.072Z,23.3
2022-12-09T00:44:52.847Z,23.1
2022-12-09T00:50:18.754Z,23
2022-12-09T00:55:58.697Z,22.9
2022-12-09T01:01:37.537Z,22.9
2022-12-09T01:07:19.554Z,23.3
2022-12-09T01:12:44.985Z,24
2022-12-09T01:18:09.705Z,23.8
2022-12-09T01:23:50.120Z,23.4
2022-12-09T01:29:14.359Z,23.1
2022-12-09T01:34:39.588Z,22.9
2022-12-09T01:39:49.587Z,22.8
2022-12-09T01:45:30.259Z,22.8
2022-12-09T01:51:10.253Z,23.3
2022-12-09T01:56:50.654Z,24
2022-12-09T02:02:32.234Z,23.8
2022-12-09T02:08:14.367Z,23.4
2022-12-09T02:13:55.440Z,23.1
2022-12-09T02:19:36.168Z,22.9
2022-12-09T02:25:01.511Z,22.7
2022-12-09T02:30:43.317Z,22.9
2022-12-09T02:36:25.264Z,23.5
2022-12-09T02:42:04.715Z,23.9
2022-12-09T02:47:50.723Z,23.6
2022-12-09T02:53:33.242Z,23.2
2022-12-09T02:58:42.779Z,22.9
2022-12-09T03:04:26.540Z,22.8
2022-12-09T03:09:51.653Z,22.7
2022-12-09T03:15:32.290Z,22.5
2022-12-09T03:21:14.586Z,22.8
2022-12-09T03:26:39.582Z,23.4
2022-12-09T03:32:22.348Z,23.9
2022-12-09T03:37:48.406Z,23.7
2022-12-09T03:43:19.160Z,23.2
2022-12-09T03:48:45.957Z,22.9
2022-12-09T03:54:10.609Z,22.8
2022-12-09T03:59:36.617Z,22.6
2022-12-09T04:05:04.218Z,22.9
2022-12-09T04:10:46.279Z,23.5
2022-12-09T04:16:30.236Z,23.9
2022-12-09T04:22:12.768Z,23.6
2022-12-09T04:27:58.347Z,23.1
2022-12-09T04:33:40.374Z,22.9
2022-12-09T04:39:06.125Z,22.7
2022-12-09T04:44:21.481Z,22.7
2022-12-09T04:49:48.536Z,23
2022-12-09T04:55:37.210Z,23.6
2022-12-09T05:01:18.912Z,23.8
2022-12-09T05:07:05.635Z,23.4
2022-12-09T05:12:36.596Z,23
2022-12-09T05:18:03.108Z,22.8
2022-12-09T05:23:18.680Z,22.6
2022-12-09T05:28:45.647Z,22.6
2022-12-09T05:34:33.651Z,23
2022-12-09T05:40:28.209Z,23.8
2022-12-09T05:46:19.809Z,23.7
2022-12-09T05:52:06.854Z,23.2
2022-12-09T05:57:55.771Z,22.9
2022-12-09T06:03:06.991Z,22.7
2022-12-09T06:08:42.196Z,22.5
2022-12-09T06:14:26.894Z,22.7
2022-12-09T06:20:15.170Z,23.2
2022-12-09T06:26:05.099Z,23.9
2022-12-09T06:31:49.501Z,23.6
2022-12-09T06:38:03.078Z,23.1
2022-12-09T06:43:46.140Z,22.9
2022-12-09T06:49:17.558Z,22.6
2022-12-09T06:54:59.978Z,22.6
2022-12-09T07:00:31.625Z,22.9
2022-12-09T07:06:21.417Z,23.6
2022-12-09T07:12:07.322Z,23.8
2022-12-09T07:17:52.160Z,23.4
2022-12-09T07:23:45.356Z,23
2022-12-09T07:29:35.386Z,22.8
2022-12-09T07:35:22.353Z,22.7
2022-12-09T07:41:12.943Z,22.6
2022-12-09T07:47:03.285Z,22.8
2022-12-09T07:52:38.432Z,23.5
2022-12-09T07:58:21.009Z,23.8
2022-12-09T08:04:06.225Z,23.4
2022-12-09T08:10:01.154Z,23.2
2022-12-09T08:15:52.871Z,23
2022-12-09T08:21:41.526Z,23.1
2022-12-09T08:27:26.794Z,23.9
2022-12-09T08:33:16.605Z,23.8
2022-12-09T08:39:01.614Z,23.4
2022-12-09T08:44:45.907Z,23.2
2022-12-09T08:50:33.013Z,23.1
2022-12-09T08:56:20.832Z,23.6
2022-12-09T09:02:03.884Z,23.9
2022-12-09T09:07:54.188Z,23.6
2022-12-09T09:13:46.918Z,23.4
2022-12-09T09:19:35.228Z,23.1
2022-12-09T09:25:21.823Z,23.4
2022-12-09T09:31:06.336Z,24
2022-12-09T09:36:59.871Z,23.7
2022-12-09T09:42:44.636Z,23.4
2022-12-09T09:48:15.601Z,23.3
2022-12-09T09:54:03.735Z,23.3
2022-12-09T09:59:52.322Z,24
2022-12-09T10:05:43.486Z,23.9
2022-12-09T10:11:34.099Z,23.6
2022-12-09T10:17:30.574Z,23.4
2022-12-09T10:23:06.007Z,23.2
2022-12-09T10:28:58.678Z,23.6
2022-12-09T10:34:50.607Z,24.1
2022-12-09T10:40:38.837Z,23.8
2022-12-09T10:46:50.210Z,23.5
2022-12-09T10:52:37.841Z,23.3
2022-12-09T10:58:23.725Z,23.4
2022-12-09T11:04:15.870Z,24.1
2022-12-09T11:10:08.861Z,23.9
2022-12-09T11:16:02.960Z,23.5
2022-12-09T11:21:54.668Z,23.3
2022-12-09T11:27:46.224Z,23.3
2022-12-09T11:34:17.318Z,23.8
2022-12-09T11:40:04.243Z,23.9
2022-12-09T11:45:34.456Z,23.6
2022-12-09T11:51:48.886Z,23.3
2022-12-09T11:57:11.643Z,23.1
2022-12-09T12:02:56.917Z,23.4
2022-12-09T12:08:41.510Z,24.1
2022-12-09T12:14:04.473Z,23.8
2022-12-09T12:19:27.391Z,23.4
2022-12-09T12:24:51.531Z,23.1
2022-12-09T12:30:41.930Z,22.9
2022-12-09T12:37:10.024Z,23.4
2022-12-09T12:42:53.116Z,23.7
2022-12-09T12:48:31.984Z,23.3
2022-12-09T12:54:50.599Z,23
2022-12-09T13:00:29.897Z,22.8
2022-12-09T13:06:12.553Z,23.1
2022-12-09T13:11:51.133Z,23.7
2022-12-09T13:17:36.390Z,23.4
2022-12-09T13:23:14.409Z,23.1
2022-12-09T13:28:58.037Z,22.9
2022-12-09T13:34:12.321Z,22.9
2022-12-09T13:39:40.638Z,23.6
2022-12-09T13:45:19.168Z,23.5
2022-12-09T13:51:02.444Z,23.2
2022-12-09T13:56:47.654Z,23.1
2022-12-09T14:02:28.521Z,22.9
2022-12-09T14:07:42.340Z,23.5
2022-12-09T14:13:20.355Z,23.7
2022-12-09T14:18:58.922Z,23.4
2022-12-09T14:24:37.290Z,23.2
2022-12-09T14:30:22.445Z,23
2022-12-09T14:35:45.538Z,23.2
2022-12-09T14:41:37.852Z,23.8
2022-12-09T14:47:19.998Z,23.5
2022-12-09T14:53:09.151Z,23.3
2022-12-09T14:58:51.706Z,23.1
2022-12-09T15:05:11.393Z,23.1
2022-12-09T15:10:34.402Z,23.8
2022-12-09T15:16:12.511Z,23.6
2022-12-09T15:22:05.080Z,23.4
2022-12-09T15:27:37.400Z,23.2
2022-12-09T15:33:15.226Z,23
2022-12-09T15:38:41.284Z,23.4
2022-12-09T15:44:10.074Z,23.9
